createdAt,value
2018-04-13T06:53:32.078Z,23.50
2018-04-13T06:56:00.348Z,23.00
2018-04-13T06:58:28.610Z,22.50
2018-04-13T07:00:56.890Z,22.30
2018-04-13T07:03:25.291Z,22.30
2018-04-13T07:05:53.615Z,22.20
2018-04-13T07:08:22.308Z,22.10
2018-04-13T07:10:50.755Z,22.10
2018-04-13T07:13:19.027Z,22.00
2018-04-13T07:15:47.483Z,22.00
2018-04-13T07:18:15.799Z,22.00
2018-04-13T07:20:44.206Z,22.00
2018-04-13T07:23:12.491Z,22.00
2018-04-13T07:25:40.793Z,21.90
2018-04-13T07:28:09.053Z,21.90
2018-04-13T07:30:37.692Z,21.90
2018-04-13T07:33:06.159Z,21.90
2018-04-13T07:35:34.447Z,21.90
2018-04-13T07:38:02.914Z,21.90
2018-04-13T07:40:31.235Z,21.90
2018-04-13T07:42:59.699Z,21.90
2018-04-13T07:45:27.982Z,21.90
2018-04-13T07:47:56.939Z,21.90
2018-04-13T07:50:35.023Z,21.90
2018-04-13T07:53:03.557Z,21.90
2018-04-13T07:55:32.602Z,21.90
2018-04-13T07:58:00.933Z,21.90
2018-04-13T08:00:29.404Z,21.90
2018-04-13T08:02:59.313Z,21.90
2018-04-13T08:05:27.591Z,21.80
2018-04-13T08:07:56.333Z,21.90
2018-04-13T08:10:24.629Z,21.90
2018-04-13T08:12:52.931Z,21.80
2018-04-13T08:15:21.214Z,21.80
2018-04-13T08:17:49.495Z,21.90
2018-04-13T08:20:18.553Z,21.90
2018-04-13T08:22:46.951Z,21.90
2018-04-13T08:25:15.232Z,21.90
2018-04-13T08:27:43.529Z,21.90
2018-04-13T08:30:11.993Z,21.90
2018-04-13T08:32:40.454Z,21.90
2018-04-13T08:35:08.772Z,21.90
2018-04-13T08:37:38.064Z,22.00
2018-04-13T08:40:06.479Z,21.90
2018-04-13T08:42:35.141Z,22.00
2018-04-13T08:45:04.184Z,22.00
2018-04-13T08:47:32.590Z,22.00
2018-04-13T08:50:00.971Z,22.00
2018-04-13T08:52:29.306Z,22.00
2018-04-13T08:54:57.999Z,22.00
2018-04-13T08:57:26.612Z,22.00
2018-04-13T08:59:54.988Z,21.90
2018-04-13T09:02:23.446Z,22.00
2018-04-13T09:04:51.766Z,22.10
2018-04-13T09:07:21.019Z,22.20
2018-04-13T09:09:49.441Z,22.20
2018-04-13T09:12:17.937Z,22.20
2018-04-13T09:14:46.328Z,22.30
2018-04-13T09:17:14.912Z,22.30
2018-04-13T09:19:43.625Z,22.40
2018-04-13T09:22:11.905Z,22.40
2018-04-13T09:24:40.230Z,22.40
2018-04-13T09:27:08.778Z,22.50
2018-04-13T09:29:37.193Z,22.50
2018-04-13T09:32:05.475Z,22.50
2018-04-13T09:34:34.509Z,22.40
2018-04-13T09:37:02.860Z,22.40
2018-04-13T09:39:31.295Z,22.40
2018-04-13T09:41:59.963Z,22.40
2018-04-13T09:44:28.590Z,22.40
2018-04-13T09:46:57.647Z,22.40
2018-04-13T09:49:26.327Z,22.30
2018-04-13T09:51:54.716Z,22.40
2018-04-13T09:54:23.350Z,22.30
2018-04-13T09:56:52.417Z,22.40
2018-04-13T09:59:20.700Z,22.30
2018-04-13T10:01:48.979Z,22.30
2018-04-13T10:04:20.250Z,22.30
2018-04-13T10:06:48.747Z,22.30
2018-04-13T10:09:17.067Z,22.30
2018-04-13T10:11:45.461Z,22.30
2018-04-13T10:14:13.846Z,22.30
2018-04-13T10:16:42.133Z,22.30
2018-04-13T10:19:11.174Z,22.30
2018-04-13T10:21:39.903Z,22.30
2018-04-13T10:24:08.153Z,22.30
2018-04-13T10:26:36.889Z,22.30
2018-04-13T10:29:05.935Z,22.30
2018-04-13T10:31:34.313Z,22.30
2018-04-13T10:34:02.613Z,22.30
2018-04-13T10:36:30.890Z,22.40
2018-04-13T10:38:59.386Z,22.40
2018-04-13T10:41:28.742Z,22.40
2018-04-13T10:43:57.065Z,22.40
2018-04-13T10:46:26.123Z,22.40
2018-04-13T10:48:54.394Z,22.40
2018-04-13T10:51:22.949Z,22.40
2018-04-13T10:53:51.298Z,22.40
2018-04-13T10:56:19.616Z,22.40
2018-04-13T10:58:47.880Z,22.40
2018-04-13T11:01:16.511Z,22.40
2018-04-13T11:03:45.087Z,22.40
2018-04-13T11:06:13.471Z,22.40
2018-04-13T11:08:41.744Z,22.40
2018-04-13T11:11:10.019Z,22.30
2018-04-13T11:13:38.629Z,22.20
2018-04-13T11:16:06.906Z,22.20
2018-04-13T11:18:35.291Z,22.10
2018-04-13T11:38:38.359Z,22.20
2018-04-13T11:41:06.739Z,22.20
2018-04-13T11:43:35.106Z,22.20
2018-04-13T11:46:03.753Z,22.20
2018-04-13T11:48:32.947Z,22.20
2018-04-13T11:51:01.212Z,22.20
2018-04-13T11:53:29.481Z,22.20
2018-04-13T11:55:58.417Z,22.10
2018-04-13T11:58:26.706Z,22.10
2018-04-13T12:00:56.245Z,22.20
2018-04-13T12:03:26.472Z,22.20
2018-04-13T12:05:54.758Z,22.20
2018-04-13T12:08:23.590Z,22.10
2018-04-13T12:10:51.926Z,22.10
2018-04-13T12:13:20.202Z,22.00
2018-04-13T12:15:48.591Z,22.00
2018-04-13T12:18:17.051Z,22.00
2018-04-13T12:20:45.398Z,22.10
2018-04-13T12:23:13.732Z,22.10
2018-04-13T12:25:42.002Z,22.10
2018-04-13T12:28:10.270Z,22.10
2018-04-13T12:30:38.555Z,22.10
2018-04-13T12:33:08.993Z,22.10
2018-04-13T12:35:37.238Z,22.10
2018-04-13T12:38:05.819Z,22.10
2018-04-13T12:40:34.089Z,22.20
2018-04-13T12:43:02.374Z,22.20
2018-04-13T12:45:31.043Z,22.20
2018-04-13T12:47:59.751Z,22.20
2018-04-13T12:50:28.134Z,22.30
2018-04-13T12:52:56.468Z,22.30
2018-04-13T12:55:24.890Z,22.30
2018-04-13T12:57:53.149Z,22.30
2018-04-13T13:00:21.651Z,22.30
2018-04-13T13:02:49.943Z,22.30
2018-04-13T13:05:18.227Z,22.30
2018-04-13T13:07:46.596Z,22.30
2018-04-13T13:10:14.858Z,22.30
2018-04-13T13:12:43.234Z,22.20
2018-04-13T13:15:11.596Z,22.20
2018-04-13T13:17:39.886Z,22.30
2018-04-13T13:20:08.151Z,22.20
2018-04-13T13:22:36.420Z,22.20
2018-04-13T13:25:04.686Z,22.20
2018-04-13T13:27:33.213Z,22.20
2018-04-13T13:30:01.602Z,22.20
2018-04-13T13:32:29.874Z,22.20
2018-04-13T13:34:58.562Z,22.20
2018-04-13T13:37:27.275Z,22.20
2018-04-13T13:39:55.685Z,22.20
2018-04-13T13:42:24.011Z,22.20
2018-04-13T13:44:52.393Z,22.20
2018-04-13T13:47:20.830Z,22.20
2018-04-13T13:49:49.155Z,22.20
2018-04-13T13:52:18.460Z,22.20
2018-04-13T13:54:47.510Z,22.20
2018-04-13T13:57:15.890Z,22.20
2018-04-13T13:59:44.197Z,22.20
2018-04-13T14:02:12.530Z,22.20
2018-04-13T14:04:41.020Z,22.20
2018-04-13T14:07:09.366Z,22.20
2018-04-13T14:09:37.811Z,22.20
2018-04-13T14:12:06.083Z,22.20
2018-04-13T14:14:34.481Z,22.20
2018-04-13T14:17:03.222Z,22.20
2018-04-13T14:19:31.538Z,22.20
2018-04-13T14:21:59.817Z,22.20
2018-04-13T14:24:28.186Z,22.20
2018-04-13T14:26:56.426Z,22.30
2018-04-13T14:29:24.774Z,22.30
2018-04-13T14:31:53.186Z,22.30
2018-04-13T14:34:21.443Z,22.30
2018-04-13T14:36:49.723Z,22.30
2018-04-13T14:39:17.993Z,22.30
2018-04-13T14:42:51.102Z,22.40
2018-04-13T14:45:19.361Z,22.40
2018-04-13T14:47:47.647Z,22.40
2018-04-13T14:50:15.935Z,22.50
2018-04-13T14:52:44.190Z,22.50
2018-04-13T14:55:12.465Z,22.50
2018-04-13T14:57:40.895Z,22.60
2018-04-13T15:00:09.453Z,22.60
2018-04-13T15:02:37.758Z,22.60
2018-04-13T15:05:06.029Z,22.50
2018-04-13T15:07:34.415Z,22.50
2018-04-13T15:10:02.681Z,22.40
2018-04-13T15:12:30.964Z,22.40
2018-04-13T15:14:59.242Z,22.40
2018-04-13T15:17:27.518Z,22.40
2018-04-13T15:19:55.998Z,22.40
2018-04-13T15:22:25.074Z,22.40
2018-04-13T15:24:53.359Z,22.40
2018-04-13T15:27:21.769Z,22.40
2018-04-13T15:29:50.031Z,22.40
2018-04-13T15:32:18.291Z,22.40
2018-04-13T15:34:46.597Z,22.40
2018-04-13T15:37:15.698Z,22.40
2018-04-13T15:39:43.941Z,22.40
2018-04-13T15:42:12.220Z,22.40
2018-04-13T15:44:40.473Z,22.40
2018-04-13T15:47:08.739Z,22.40
2018-04-13T15:49:37.017Z,22.40
2018-04-13T15:52:05.383Z,22.50
2018-04-13T15:54:33.630Z,22.50
2018-04-13T15:57:02.007Z,22.60
2018-04-13T15:59:30.358Z,22.70
2018-04-13T16:01:58.631Z,22.70
2018-04-13T16:04:27.136Z,22.70
2018-04-13T16:06:55.403Z,22.70
2018-04-13T16:09:23.732Z,22.80
2018-04-13T16:11:52.007Z,22.80
2018-04-13T16:14:20.326Z,22.80
2018-04-13T16:16:48.605Z,22.80
2018-04-13T16:19:17.103Z,22.80
2018-04-13T16:21:45.366Z,22.70
2018-04-13T16:24:13.836Z,22.70
2018-04-13T16:26:42.172Z,22.70
2018-04-13T16:29:10.597Z,22.70
2018-04-13T16:31:39.295Z,22.70
2018-04-13T16:34:07.572Z,22.70
2018-04-13T16:36:36.069Z,22.70
2018-04-13T16:39:04.364Z,22.70
2018-04-13T16:41:32.627Z,22.70
2018-04-13T16:44:00.982Z,22.70
2018-04-13T16:46:29.266Z,22.70
2018-04-13T16:48:57.541Z,22.70
2018-04-13T16:51:25.838Z,22.70
2018-04-13T16:53:54.120Z,22.70
2018-04-13T16:56:22.484Z,22.70
2018-04-13T16:58:50.774Z,22.70
2018-04-13T17:01:19.243Z,22.70
2018-04-13T17:03:47.506Z,22.70
2018-04-13T17:06:16.678Z,22.70
2018-04-13T17:08:52.716Z,22.70
2018-04-13T17:11:21.047Z,22.70
2018-04-13T17:13:49.442Z,22.80
2018-04-13T17:16:19.065Z,22.80
2018-04-13T17:18:51.146Z,22.80
2018-04-13T17:21:19.423Z,22.80
2018-04-13T17:23:48.350Z,22.80
2018-04-13T17:26:16.763Z,22.80
2018-04-13T17:28:45.222Z,22.80
2018-04-13T17:31:13.514Z,22.80
2018-04-13T17:33:42.943Z,22.80
2018-04-13T17:36:11.226Z,22.80
2018-04-13T17:38:39.971Z,22.90
2018-04-13T17:41:08.369Z,22.90
2018-04-13T17:43:37.158Z,22.90
2018-04-13T17:46:05.405Z,22.90
2018-04-13T17:48:33.717Z,22.90
2018-04-13T17:51:02.193Z,22.90
2018-04-13T17:53:30.463Z,23.00
2018-04-13T17:55:58.849Z,23.00
2018-04-13T17:58:27.299Z,23.00
2018-04-13T18:00:55.686Z,23.00
2018-04-13T18:03:24.154Z,23.10
2018-04-13T18:05:52.698Z,23.00
2018-04-13T18:08:22.018Z,23.10
2018-04-13T18:10:50.687Z,23.00
2018-04-13T18:13:19.131Z,23.10
2018-04-13T18:15:47.429Z,23.10
2018-04-13T18:18:16.489Z,23.20
2018-04-13T18:20:44.886Z,23.20
2018-04-13T18:23:13.159Z,23.20
2018-04-13T18:25:41.418Z,23.30
2018-04-13T18:28:09.716Z,23.30
2018-04-13T18:30:38.078Z,23.20
2018-04-13T18:33:06.355Z,23.30
2018-04-13T18:35:34.630Z,23.30
2018-04-13T18:38:02.898Z,23.30
2018-04-13T18:40:31.309Z,23.30
2018-04-13T18:42:59.577Z,23.20
2018-04-13T18:45:28.597Z,23.20
2018-04-13T18:47:56.876Z,23.20
2018-04-13T18:50:25.170Z,23.20
2018-04-13T18:52:53.436Z,23.20
2018-04-13T18:55:22.457Z,23.20
2018-04-13T18:57:50.941Z,23.10
2018-04-13T19:00:19.151Z,23.20
2018-04-13T19:02:47.594Z,23.10
2018-04-13T19:08:10.006Z,23.10
2018-04-13T19:10:38.993Z,23.10
2018-04-13T19:13:07.283Z,23.10
2018-04-13T19:15:58.003Z,23.10
2018-04-13T19:18:29.987Z,23.10
2018-04-13T19:21:23.610Z,23.10
2018-04-13T19:23:55.234Z,23.10
2018-04-13T19:26:26.360Z,23.10
2018-04-13T19:29:02.853Z,23.10
2018-04-13T19:31:35.257Z,23.10
2018-04-13T19:34:05.342Z,23.10
2018-04-13T19:36:33.615Z,23.10
2018-04-13T19:39:02.045Z,23.10
2018-04-13T19:41:39.884Z,23.10
2018-04-13T19:44:18.660Z,23.10
2018-04-13T19:46:49.195Z,23.10
2018-04-13T19:49:18.418Z,23.10
2018-04-13T19:51:46.776Z,23.10
2018-04-13T19:54:15.033Z,23.10
2018-04-13T19:56:44.065Z,23.10
2018-04-13T19:59:13.095Z,23.10
2018-04-13T20:01:41.356Z,23.00
2018-04-13T20:04:09.774Z,23.10
2018-04-13T20:06:38.129Z,23.00
2018-04-13T20:09:06.399Z,23.10
2018-04-13T20:11:35.816Z,23.10
2018-04-13T20:14:05.029Z,23.00
2018-04-13T20:16:33.427Z,23.00
2018-04-13T20:19:01.887Z,23.00
2018-04-13T20:21:30.149Z,23.00
2018-04-13T20:23:58.717Z,23.00
2018-04-13T20:26:26.983Z,23.00
2018-04-13T20:28:55.262Z,23.00
2018-04-13T20:31:23.545Z,23.00
2018-04-13T20:33:52.651Z,23.00
2018-04-13T20:36:20.956Z,23.00
2018-04-13T20:38:49.232Z,23.10
2018-04-13T20:41:18.370Z,23.10
2018-04-13T20:43:46.638Z,23.10
2018-04-13T20:46:14.901Z,23.10
2018-04-13T20:48:43.235Z,23.10
2018-04-13T20:51:11.482Z,23.10
2018-04-13T20:53:39.810Z,23.10
2018-04-13T20:56:08.091Z,23.10
2018-04-13T20:58:36.365Z,23.00
2018-04-13T21:01:06.172Z,22.90
2018-04-13T21:03:34.594Z,23.00
2018-04-13T21:06:02.903Z,22.90
2018-04-13T21:08:31.271Z,22.80
2018-04-13T21:10:59.582Z,22.80
2018-04-13T21:13:27.871Z,22.80
2018-04-13T21:15:56.209Z,22.70
2018-04-13T21:18:25.245Z,22.70
2018-04-13T21:20:53.503Z,22.70
2018-04-13T21:23:21.778Z,22.70
2018-04-13T21:25:50.362Z,22.70
2018-04-13T21:28:20.169Z,22.60
2018-04-13T21:30:48.447Z,22.70
2018-04-13T21:33:16.710Z,22.60
2018-04-13T21:35:45.034Z,22.60
2018-04-13T21:38:13.355Z,22.60
2018-04-13T21:40:41.659Z,22.60
2018-04-13T21:43:09.908Z,22.60
2018-04-13T21:45:38.174Z,22.60
2018-04-13T21:48:06.605Z,22.60
2018-04-13T21:50:34.874Z,22.60
2018-04-13T21:53:03.138Z,22.60
2018-04-13T21:55:31.464Z,22.60
2018-04-13T21:57:59.740Z,22.60
2018-04-13T22:00:28.237Z,22.60
2018-04-13T22:02:57.308Z,22.60
2018-04-13T22:05:25.568Z,22.60
2018-04-13T22:07:54.334Z,22.60
2018-04-13T22:10:22.605Z,22.50
2018-04-13T22:13:02.840Z,22.50
2018-04-13T22:15:31.109Z,22.50
2018-04-13T22:17:59.375Z,22.50
2018-04-13T22:20:28.436Z,22.50
2018-04-13T22:22:56.704Z,22.50
2018-04-13T22:25:24.963Z,22.50
2018-04-13T22:27:53.259Z,22.50
2018-04-13T22:30:21.514Z,22.50
2018-04-13T22:32:49.786Z,22.50
2018-04-13T22:35:18.059Z,22.50
2018-04-13T22:37:46.345Z,22.50
2018-04-13T22:40:14.643Z,22.50
2018-04-13T22:42:42.935Z,22.50
2018-04-13T22:45:11.217Z,22.50
2018-04-13T22:47:39.523Z,22.50
2018-04-13T22:50:07.785Z,22.40
2018-04-13T22:52:36.154Z,22.40
2018-04-13T22:55:04.518Z,22.40
2018-04-13T22:57:32.784Z,22.40
2018-04-13T23:00:01.046Z,22.40
2018-04-13T23:02:29.325Z,22.40
2018-04-13T23:04:57.751Z,22.40
2018-04-13T23:07:26.532Z,22.40
2018-04-13T23:09:54.795Z,22.40
2018-04-13T23:12:23.195Z,22.40
2018-04-13T23:14:51.454Z,22.40
2018-04-13T23:17:19.737Z,22.40
2018-04-13T23:19:49.508Z,22.40
2018-04-13T23:22:29.590Z,22.40
2018-04-13T23:24:58.745Z,22.40
2018-04-13T23:27:27.083Z,22.40
2018-04-13T23:29:55.331Z,22.40
2018-04-13T23:32:23.594Z,22.40
2018-04-13T23:34:51.875Z,22.40
2018-04-13T23:37:20.143Z,22.30
2018-04-13T23:39:48.417Z,22.30
2018-04-13T23:42:16.696Z,22.30
2018-04-13T23:44:44.979Z,22.30
2018-04-13T23:47:13.239Z,22.30
2018-04-13T23:49:41.501Z,22.30
2018-04-13T23:52:09.820Z,22.30
2018-04-13T23:54:38.125Z,22.30
2018-04-13T23:57:06.390Z,22.30
2018-04-13T23:59:34.664Z,22.30
